createdAt,value
2018-06-04T00:00:41.115Z,86.89
2018-06-04T00:01:41.284Z,87.18
2018-06-04T00:02:41.036Z,86.69
2018-06-04T00:03:41.067Z,86.89
2018-06-04T00:04:47.418Z,87.46
2018-06-04T00:05:43.068Z,87.27
2018-06-04T00:06:41.053Z,87.37
2018-06-04T00:07:41.016Z,86.99
2018-06-04T00:08:42.837Z,87.56
2018-06-04T00:09:41.073Z,87.56
2018-06-04T00:10:41.072Z,87.56
2018-06-04T00:11:41.065Z,87.37
2018-06-04T00:12:41.084Z,87.37
2018-06-04T00:13:41.078Z,87.66
2018-06-04T00:14:41.090Z,87.95
2018-06-04T00:15:41.085Z,88.04
2018-06-04T00:16:41.065Z,87.37
2018-06-04T00:17:41.115Z,87.27
2018-06-04T00:18:41.083Z,86.99
2018-06-04T00:19:41.089Z,87.46
2018-06-04T00:20:41.073Z,87.56
2018-06-04T00:21:41.105Z,87.95
2018-06-04T00:22:47.427Z,87.66
2018-06-04T00:23:42.094Z,87.66
2018-06-04T00:24:41.116Z,88.04
2018-06-04T00:25:43.112Z,87.95
2018-06-04T00:26:41.115Z,88.14
2018-06-04T00:27:41.112Z,88.39
2018-06-04T00:28:42.094Z,88.04
2018-06-04T00:29:41.056Z,88.04
2018-06-04T00:30:42.047Z,88.48
2018-06-04T00:31:41.052Z,87.95
2018-06-04T00:32:41.060Z,88.33
2018-06-04T00:33:41.093Z,88.29
2018-06-04T00:35:42.791Z,88.67
2018-06-04T00:36:41.077Z,88.48
2018-06-04T00:37:41.136Z,88.87
2018-06-04T00:38:43.079Z,89.10
2018-06-04T00:39:40.665Z,88.33
2018-06-04T00:40:55.411Z,88.57
2018-06-04T00:41:55.299Z,88.77
2018-06-04T00:42:43.110Z,88.67
2018-06-04T00:43:41.075Z,88.96
2018-06-04T00:44:43.127Z,88.57
2018-06-04T00:45:41.112Z,88.39
2018-06-04T00:46:41.115Z,88.48
2018-06-04T00:47:41.109Z,88.39
2018-06-04T00:48:41.079Z,88.77
2018-06-04T00:49:41.391Z,88.96
2018-06-04T00:50:41.102Z,88.77
2018-06-04T00:51:41.121Z,88.29
2018-06-04T00:52:41.113Z,88.04
2018-06-04T00:53:41.113Z,88.77
2018-06-04T00:54:41.106Z,88.19
2018-06-04T00:55:41.113Z,88.77
2018-06-04T00:56:41.141Z,88.87
2018-06-04T00:57:41.076Z,89.15
2018-06-04T00:58:41.109Z,89.06
2018-06-04T00:59:41.071Z,88.96
2018-06-04T01:00:41.074Z,89.06
2018-06-04T01:01:41.321Z,89.15
2018-06-04T01:02:41.079Z,89.15
2018-06-04T01:03:46.975Z,89.54
2018-06-04T01:04:41.335Z,89.06
2018-06-04T01:05:41.328Z,89.25
2018-06-04T01:06:41.311Z,88.39
2018-06-04T01:07:41.080Z,89.15
2018-06-04T01:08:41.108Z,89.35
2018-06-04T01:09:41.093Z,89.83
2018-06-04T01:10:41.313Z,89.35
2018-06-04T01:11:41.358Z,89.44
2018-06-04T01:12:41.318Z,90.17
2018-06-04T01:13:41.326Z,90.36
2018-06-04T01:14:41.330Z,90.07
2018-06-04T01:15:41.353Z,90.17
2018-06-04T01:16:41.329Z,89.59
2018-06-04T01:17:41.106Z,89.64
2018-06-04T01:18:41.321Z,90.12
2018-06-04T01:19:42.147Z,90.17
2018-06-04T01:20:41.345Z,90.65
2018-06-04T01:21:41.316Z,90.65
2018-06-04T01:22:41.164Z,89.78
2018-06-04T01:23:41.343Z,90.45
2018-06-04T01:24:41.179Z,90.75
2018-06-04T01:25:41.324Z,90.26
2018-06-04T01:26:41.321Z,90.45
2018-06-04T01:27:41.320Z,90.55
2018-06-04T01:28:41.319Z,90.07
2018-06-04T01:29:41.325Z,90.75
2018-06-04T01:30:41.326Z,91.03
2018-06-04T01:31:41.317Z,90.65
2018-06-04T01:32:41.318Z,91.32
2018-06-04T01:33:41.328Z,91.22
2018-06-04T01:34:41.108Z,90.65
2018-06-04T01:35:41.338Z,90.65
2018-06-04T01:36:41.350Z,90.65
2018-06-04T01:37:41.122Z,90.75
2018-06-04T01:38:41.058Z,90.55
2018-06-04T01:39:41.323Z,90.75
2018-06-04T01:40:41.104Z,89.98
2018-06-04T01:41:41.373Z,90.94
2018-06-04T01:42:41.101Z,90.84
2018-06-04T01:43:41.329Z,90.75
2018-06-04T01:44:41.323Z,90.94
2018-06-04T01:45:41.345Z,90.94
2018-06-04T01:46:41.351Z,90.94
2018-06-04T01:47:41.350Z,90.55
2018-06-04T01:48:41.344Z,91.13
2018-06-04T01:49:41.346Z,90.84
2018-06-04T01:50:47.327Z,90.65
2018-06-04T01:51:41.162Z,90.45
2018-06-04T01:52:41.330Z,91.22
2018-06-04T01:53:41.202Z,91.22
2018-06-04T01:54:41.413Z,91.42
2018-06-04T01:55:41.329Z,91.42
2018-06-04T01:56:41.334Z,91.99
2018-06-04T01:57:41.329Z,90.84
2018-06-04T01:58:41.332Z,90.99
2018-06-04T01:59:41.680Z,91.32
2018-06-04T02:00:41.653Z,91.66
2018-06-04T02:01:41.219Z,91.90
2018-06-04T02:02:41.153Z,91.42
2018-06-04T02:03:43.137Z,90.65
2018-06-04T02:04:43.988Z,91.71
2018-06-04T02:05:43.158Z,91.90
2018-06-04T02:06:41.144Z,91.75
2018-06-04T02:07:41.144Z,92.52
2018-06-04T02:08:43.066Z,92.62
2018-06-04T02:09:41.195Z,92.19
2018-06-04T02:10:41.131Z,91.42
2018-06-04T02:11:41.145Z,92.05
2018-06-04T02:12:41.327Z,92.05
2018-06-04T02:13:41.201Z,91.85
2018-06-04T02:15:41.213Z,91.66
2018-06-04T02:16:41.196Z,91.85
2018-06-04T02:17:41.114Z,91.75
2018-06-04T02:18:41.145Z,91.66
2018-06-04T02:19:41.112Z,91.85
2018-06-04T02:20:41.093Z,91.56
2018-06-04T02:21:41.112Z,91.95
2018-06-04T02:22:41.137Z,91.61
2018-06-04T02:23:41.217Z,91.47
2018-06-04T02:24:41.189Z,91.85
2018-06-04T02:25:41.209Z,91.75
2018-06-04T02:26:41.154Z,92.05
2018-06-04T02:27:42.969Z,92.33
2018-06-04T02:28:41.150Z,92.24
2018-06-04T02:29:41.155Z,92.43
2018-06-04T02:30:41.167Z,92.14
2018-06-04T02:31:41.188Z,92.81
2018-06-04T02:32:41.254Z,92.81
2018-06-04T02:33:41.286Z,92.72
2018-06-04T02:34:41.163Z,92.72
2018-06-04T02:35:41.276Z,92.52
2018-06-04T02:36:41.207Z,92.91
2018-06-04T02:37:43.338Z,92.43
2018-06-04T02:38:41.242Z,92.62
2018-06-04T02:39:41.300Z,92.05
2018-06-04T02:40:41.277Z,91.95
2018-06-04T02:41:41.274Z,91.85
2018-06-04T02:42:41.132Z,91.95
2018-06-04T02:43:41.340Z,92.14
2018-06-04T02:44:41.141Z,92.43
2018-06-04T02:45:41.150Z,92.14
2018-06-04T02:46:41.148Z,92.14
2018-06-04T02:47:41.207Z,92.43
2018-06-04T02:48:41.191Z,93.01
2018-06-04T02:49:41.151Z,92.24
2018-06-04T02:51:41.152Z,93.01
2018-06-04T02:52:41.203Z,92.52
2018-06-04T02:53:41.193Z,92.91
2018-06-04T02:54:41.205Z,92.72
2018-06-04T02:55:41.215Z,92.62
2018-06-04T02:56:41.213Z,92.14
2018-06-04T02:57:41.224Z,92.43
2018-06-04T02:58:41.206Z,92.14
2018-06-04T02:59:41.214Z,92.62
2018-06-04T03:00:41.213Z,92.43
2018-06-04T03:01:41.277Z,92.14
2018-06-04T03:02:41.250Z,92.33
2018-06-04T03:03:41.269Z,92.14
2018-06-04T03:04:41.278Z,92.48
2018-06-04T03:05:41.263Z,92.72
2018-06-04T03:06:40.984Z,92.81
2018-06-04T03:07:41.144Z,93.10
2018-06-04T03:08:41.144Z,92.91
2018-06-04T03:09:41.147Z,92.72
2018-06-04T03:10:41.143Z,92.72
2018-06-04T03:11:41.173Z,92.72
2018-06-04T03:12:41.153Z,92.62
2018-06-04T03:13:41.207Z,93.01
2018-06-04T03:14:41.225Z,92.62
2018-06-04T03:15:41.158Z,92.24
2018-06-04T03:16:41.240Z,92.81
2018-06-04T03:17:41.680Z,92.67
2018-06-04T03:18:41.277Z,92.62
2018-06-04T03:19:43.350Z,93.15
2018-06-04T03:20:41.080Z,93.29
2018-06-04T03:21:41.132Z,93.25
2018-06-04T03:22:41.144Z,93.15
2018-06-04T03:23:41.079Z,92.86
2018-06-04T03:25:42.927Z,93.34
2018-06-04T03:26:41.143Z,93.44
2018-06-04T03:27:41.160Z,93.54
2018-06-04T03:28:41.154Z,94.11
2018-06-04T03:29:41.143Z,94.11
2018-06-04T03:30:41.138Z,94.11
2018-06-04T03:31:41.149Z,93.44
2018-06-04T03:32:41.205Z,94.01
2018-06-04T03:33:41.174Z,93.82
2018-06-04T03:34:41.161Z,94.31
2018-06-04T03:35:42.368Z,93.82
2018-06-04T03:36:41.269Z,94.01
2018-06-04T03:37:41.190Z,94.01
2018-06-04T03:38:41.212Z,94.49
2018-06-04T03:39:41.209Z,93.92
2018-06-04T03:40:41.235Z,93.73
2018-06-04T03:41:41.268Z,94.21
2018-06-04T03:42:41.187Z,94.11
2018-06-04T03:43:41.217Z,94.06
2018-06-04T03:44:41.214Z,93.92
2018-06-04T03:45:41.290Z,93.82
2018-06-04T03:46:41.090Z,94.11
2018-06-04T03:47:41.090Z,94.69
2018-06-04T03:48:41.099Z,94.59
2018-06-04T03:49:41.090Z,93.63
2018-06-04T03:50:41.114Z,93.63
2018-06-04T03:51:41.137Z,93.63
2018-06-04T03:52:41.153Z,94.01
2018-06-04T03:53:41.128Z,93.92
2018-06-04T03:54:41.139Z,93.58
2018-06-04T03:55:41.120Z,93.68
2018-06-04T03:56:41.130Z,93.92
2018-06-04T03:57:41.181Z,94.11
2018-06-04T03:58:41.153Z,94.11
2018-06-04T03:59:41.186Z,93.92
2018-06-04T04:00:41.157Z,93.77
2018-06-04T04:01:41.261Z,93.25
2018-06-04T04:02:41.245Z,93.92
2018-06-04T04:03:41.218Z,93.63
2018-06-04T04:04:41.219Z,93.73
2018-06-04T04:05:41.374Z,93.96
2018-06-04T04:06:41.295Z,94.49
2018-06-04T04:07:41.457Z,94.40
2018-06-04T04:08:41.300Z,94.69
2018-06-04T04:09:41.228Z,94.69
2018-06-04T04:10:41.178Z,93.58
2018-06-04T04:11:41.281Z,93.68
2018-06-04T04:12:41.867Z,94.06
2018-06-04T04:13:41.345Z,93.96
2018-06-04T04:14:41.349Z,93.39
2018-06-04T04:15:41.355Z,93.87
2018-06-04T04:16:41.382Z,94.83
2018-06-04T04:17:41.336Z,94.83
2018-06-04T04:18:41.341Z,94.16
2018-06-04T04:19:42.839Z,93.96
2018-06-04T04:20:41.250Z,93.87
2018-06-04T04:21:41.241Z,94.06
2018-06-04T04:22:41.213Z,93.58
2018-06-04T04:23:41.247Z,93.77
2018-06-04T04:24:41.238Z,94.06
2018-06-04T04:25:41.237Z,93.87
2018-06-04T04:27:42.031Z,94.73
2018-06-04T04:28:42.250Z,94.64
2018-06-04T04:29:41.940Z,94.73
2018-06-04T04:30:42.403Z,94.64
2018-06-04T04:31:42.913Z,94.54
2018-06-04T04:32:41.608Z,94.64
2018-06-04T04:33:41.297Z,94.26
2018-06-04T04:34:41.314Z,94.16
2018-06-04T04:35:42.274Z,94.26
2018-06-04T04:36:41.331Z,94.16
2018-06-04T04:37:41.361Z,94.64
2018-06-04T04:38:47.613Z,94.83
2018-06-04T04:39:48.554Z,93.87
2018-06-04T04:40:41.467Z,94.06
2018-06-04T04:41:41.376Z,94.01
2018-06-04T04:42:41.387Z,93.68
2018-06-04T04:43:42.923Z,94.26
2018-06-04T04:44:41.389Z,94.54
2018-06-04T04:45:41.393Z,95.31
2018-06-04T04:46:41.269Z,95.21
2018-06-04T04:47:41.513Z,95.21
2018-06-04T04:48:48.371Z,95.31
2018-06-04T04:49:42.729Z,94.54
2018-06-04T04:50:45.733Z,94.54
2018-06-04T04:51:41.212Z,95.07
2018-06-04T04:52:42.579Z,94.40
2018-06-04T04:53:41.886Z,94.11
2018-06-04T04:54:43.312Z,94.21
2018-06-04T04:55:41.311Z,93.73
2018-06-04T04:56:42.741Z,94.40
2018-06-04T04:57:41.229Z,94.45
2018-06-04T04:58:41.480Z,94.21
2018-06-04T04:59:41.337Z,94.21
2018-06-04T05:00:43.376Z,94.11
2018-06-04T05:01:41.029Z,93.91
2018-06-04T05:02:43.391Z,94.11
2018-06-04T05:03:43.749Z,94.01
2018-06-04T05:04:41.628Z,93.63
2018-06-04T05:05:41.852Z,93.44
2018-06-04T05:06:41.307Z,93.05
2018-06-04T05:07:41.355Z,93.63
2018-06-04T05:08:41.259Z,93.44
2018-06-04T05:09:41.250Z,93.91
2018-06-04T05:10:41.432Z,93.44
2018-06-04T05:11:41.304Z,93.82
2018-06-04T05:12:41.340Z,93.63
2018-06-04T05:13:41.318Z,94.11
2018-06-04T05:14:45.403Z,93.73
2018-06-04T05:15:41.248Z,93.63
2018-06-04T05:16:41.441Z,93.34
2018-06-04T05:17:41.013Z,93.05
2018-06-04T05:18:41.751Z,93.34
2018-06-04T05:19:41.255Z,93.15
2018-06-04T05:20:42.930Z,92.76
2018-06-04T05:21:41.759Z,92.81
2018-06-04T05:22:41.760Z,92.57
2018-06-04T05:23:41.437Z,92.71
2018-06-04T05:24:41.321Z,93.15
2018-06-04T05:25:42.200Z,93.24
2018-06-04T05:26:45.426Z,93.68
2018-06-04T05:27:47.575Z,93.19
2018-06-04T05:28:41.397Z,93.38
2018-06-04T05:29:41.790Z,93.10
2018-06-04T05:30:42.781Z,92.86
2018-06-04T05:31:42.931Z,92.67
2018-06-04T05:32:41.842Z,93.10
2018-06-04T05:33:41.303Z,93.00
2018-06-04T05:35:43.441Z,92.71
2018-06-04T05:36:41.453Z,92.71
2018-06-04T05:37:41.772Z,93.10
2018-06-04T05:38:49.436Z,93.29
2018-06-04T05:39:41.310Z,93.38
2018-06-04T05:40:43.540Z,93.63
2018-06-04T05:41:41.999Z,93.48
2018-06-04T05:42:41.455Z,93.48
2018-06-04T05:43:41.909Z,93.29
2018-06-04T05:44:42.405Z,93.58
2018-06-04T05:45:42.072Z,93.00
2018-06-04T05:46:41.482Z,93.48
2018-06-04T05:47:41.263Z,93.68
2018-06-04T05:48:41.408Z,93.68
2018-06-04T05:49:42.760Z,93.00
2018-06-04T05:50:41.948Z,93.19
2018-06-04T05:51:41.819Z,93.29
2018-06-04T05:52:41.425Z,93.00
2018-06-04T05:53:41.407Z,93.15
2018-06-04T05:54:41.396Z,92.61
2018-06-04T05:55:41.444Z,93.10
2018-06-04T05:56:42.084Z,92.61
2018-06-04T05:57:42.368Z,92.81
2018-06-04T05:58:43.753Z,93.05
2018-06-04T05:59:41.463Z,92.66
2018-06-04T06:00:41.769Z,91.80
2018-06-04T06:01:41.883Z,91.80
2018-06-04T06:02:43.784Z,91.31
2018-06-04T06:03:41.429Z,91.99
2018-06-04T06:04:43.769Z,91.99
2018-06-04T06:05:44.444Z,91.99
2018-06-04T06:06:41.731Z,91.99
2018-06-04T06:08:41.313Z,91.99
2018-06-04T06:09:41.771Z,92.18
2018-06-04T06:10:41.920Z,92.28
2018-06-04T06:11:41.266Z,91.99
2018-06-04T06:12:42.031Z,92.76
2018-06-04T06:13:41.913Z,92.85
2018-06-04T06:14:41.949Z,92.76
2018-06-04T06:15:41.401Z,92.76
2018-06-04T06:16:41.446Z,92.47
2018-06-04T06:17:41.617Z,92.28
2018-06-04T06:18:41.783Z,91.99
2018-06-04T06:19:43.451Z,91.99
2018-06-04T06:20:42.014Z,91.65
2018-06-04T06:21:41.734Z,91.89
2018-06-04T06:22:41.434Z,91.94
2018-06-04T06:24:47.915Z,91.99
2018-06-04T06:25:41.566Z,91.84
2018-06-04T06:26:41.930Z,91.80
2018-06-04T06:27:41.459Z,91.60
2018-06-04T06:28:41.807Z,91.89
2018-06-04T06:29:41.836Z,91.80
2018-06-04T06:30:41.422Z,91.70
2018-06-04T06:31:41.483Z,91.27
2018-06-04T06:32:41.880Z,90.64
2018-06-04T06:33:41.405Z,90.88
2018-06-04T06:34:41.393Z,90.88
2018-06-04T06:35:41.295Z,90.78
2018-06-04T06:36:41.723Z,90.78
2018-06-04T06:37:41.544Z,91.17
2018-06-04T06:38:41.965Z,90.69
2018-06-04T06:39:41.466Z,90.97
2018-06-04T06:40:41.969Z,91.07
2018-06-04T06:41:41.437Z,90.97
2018-06-04T06:42:41.453Z,90.69
2018-06-04T06:43:41.731Z,90.59
2018-06-04T06:44:41.725Z,90.30
2018-06-04T06:45:41.973Z,90.88
2018-06-04T06:46:42.269Z,90.06
2018-06-04T06:47:41.478Z,90.01
2018-06-04T06:48:42.016Z,90.97
2018-06-04T06:49:43.935Z,90.78
2018-06-04T06:50:41.829Z,91.07
2018-06-04T06:51:41.771Z,90.69
2018-06-04T06:52:42.012Z,91.17
2018-06-04T06:53:42.301Z,90.59
2018-06-04T06:54:41.930Z,90.30
2018-06-04T06:55:42.427Z,90.54
2018-06-04T06:56:44.806Z,90.92
2018-06-04T06:57:42.212Z,90.06
2018-06-04T06:58:41.812Z,90.06
2018-06-04T06:59:41.955Z,89.96
2018-06-04T07:00:42.037Z,90.06
2018-06-04T07:01:41.769Z,90.20
2018-06-04T07:02:42.019Z,90.30
2018-06-04T07:03:42.047Z,90.44
2018-06-04T07:04:43.012Z,90.73
2018-06-04T07:05:41.947Z,90.20
2018-06-04T07:06:45.932Z,90.34
2018-06-04T07:07:42.426Z,90.44
2018-06-04T07:08:41.091Z,90.34
2018-06-04T07:09:41.982Z,90.73
2018-06-04T07:10:41.686Z,90.59
2018-06-04T07:12:41.752Z,91.36
2018-06-04T07:13:42.031Z,91.65
2018-06-04T07:14:43.478Z,91.65
2018-06-04T07:15:42.274Z,90.69
2018-06-04T07:16:41.446Z,90.88
2018-06-04T07:17:41.907Z,90.97
2018-06-04T07:18:41.672Z,91.75
2018-06-04T07:19:42.004Z,91.75
2018-06-04T07:20:41.197Z,91.36
2018-06-04T07:21:42.015Z,90.88
2018-06-04T07:22:41.241Z,91.17
2018-06-04T07:23:46.282Z,90.92
2018-06-04T07:24:41.491Z,90.25
2018-06-04T07:25:41.941Z,90.34
2018-06-04T07:26:43.988Z,90.83
2018-06-04T07:27:43.503Z,90.54
2018-06-04T07:28:42.048Z,90.44
2018-06-04T07:29:43.487Z,90.25
2018-06-04T07:30:41.195Z,89.86
2018-06-04T07:31:41.989Z,90.16
2018-06-04T07:32:41.882Z,89.86
2018-06-04T07:33:41.950Z,89.86
2018-06-04T07:34:41.449Z,90.34
2018-06-04T07:35:42.017Z,90.20
2018-06-04T07:36:42.288Z,90.20
2018-06-04T07:37:41.740Z,89.72
2018-06-04T07:38:42.040Z,89.62
2018-06-04T07:39:41.987Z,89.53
2018-06-04T07:40:41.945Z,89.48
2018-06-04T07:41:44.003Z,89.53
2018-06-04T07:42:42.301Z,88.75
2018-06-04T07:43:41.950Z,88.56
2018-06-04T07:44:43.582Z,89.14
2018-06-04T07:46:41.491Z,88.75
2018-06-04T07:47:42.286Z,88.46
2018-06-04T07:48:41.783Z,88.46
2018-06-04T07:49:41.998Z,87.79
2018-06-04T07:50:41.499Z,87.40
2018-06-04T07:51:43.579Z,88.08
2018-06-04T07:52:42.084Z,88.08
2018-06-04T07:53:44.714Z,87.30
2018-06-04T07:54:42.541Z,87.60
2018-06-04T07:55:41.501Z,87.64
2018-06-04T07:56:41.451Z,87.40
2018-06-04T07:57:42.449Z,87.98
2018-06-04T07:58:41.450Z,88.08
2018-06-04T07:59:41.529Z,87.60
2018-06-04T08:00:42.720Z,87.64
2018-06-04T08:01:41.807Z,86.58
2018-06-04T08:02:41.278Z,86.87
2018-06-04T08:03:42.308Z,87.26
2018-06-04T08:04:41.282Z,86.96
2018-06-04T08:05:42.288Z,86.87
2018-06-04T08:06:41.485Z,86.87
2018-06-04T08:07:42.280Z,86.29
2018-06-04T08:08:42.089Z,86.19
2018-06-04T08:09:41.961Z,85.71
2018-06-04T08:10:42.108Z,86.10
2018-06-04T08:11:42.522Z,85.91
2018-06-04T08:12:42.002Z,86.10
2018-06-04T08:13:41.968Z,85.71
2018-06-04T08:14:42.298Z,86.19
2018-06-04T08:15:42.009Z,86.10
2018-06-04T08:16:42.046Z,86.00
2018-06-04T08:17:42.468Z,86.39
2018-06-04T08:18:41.471Z,85.81
2018-06-04T08:19:42.027Z,86.29
2018-06-04T08:20:41.970Z,85.75
2018-06-04T08:21:41.984Z,84.41
2018-06-04T08:22:42.323Z,84.69
2018-06-04T08:23:42.037Z,84.59
2018-06-04T08:24:42.062Z,84.07
2018-06-04T08:25:41.470Z,84.11
2018-06-04T08:26:44.567Z,83.83
2018-06-04T08:27:41.966Z,82.96
2018-06-04T08:28:42.011Z,81.51
2018-06-04T08:29:41.805Z,81.41
2018-06-04T08:30:42.298Z,82.23
2018-06-04T08:31:41.987Z,82.38
2018-06-04T08:32:42.357Z,81.80
2018-06-04T08:33:42.317Z,81.12
2018-06-04T08:34:42.059Z,80.93
2018-06-04T08:35:41.465Z,81.22
2018-06-04T08:36:41.811Z,80.83
2018-06-04T08:37:42.019Z,81.65
2018-06-04T08:38:41.506Z,81.45
2018-06-04T08:39:41.807Z,80.97
2018-06-04T08:40:42.330Z,81.07
2018-06-04T08:41:41.792Z,80.97
2018-06-04T08:43:42.019Z,80.97
2018-06-04T08:44:41.881Z,81.45
2018-06-04T08:45:42.120Z,81.65
2018-06-04T08:46:42.015Z,82.03
2018-06-04T08:47:42.076Z,81.84
2018-06-04T08:48:42.024Z,82.03
2018-06-04T08:49:42.350Z,82.03
2018-06-04T08:50:41.345Z,81.74
2018-06-04T08:51:41.760Z,81.84
2018-06-04T08:52:42.018Z,82.32
2018-06-04T08:53:42.018Z,82.03
2018-06-04T08:54:49.412Z,81.93
2018-06-04T08:55:50.445Z,82.13
2018-06-04T08:56:41.973Z,81.65
2018-06-04T08:57:41.980Z,81.93
2018-06-04T08:58:41.365Z,82.13
2018-06-04T08:59:41.785Z,80.58
2018-06-04T09:00:42.027Z,80.49
2018-06-04T09:01:44.325Z,80.68
2018-06-04T09:02:42.026Z,80.49
2018-06-04T09:03:41.834Z,80.97
2018-06-04T09:04:42.044Z,80.78
2018-06-04T09:05:42.059Z,79.91
2018-06-04T09:06:42.237Z,80.53
2018-06-04T09:07:42.027Z,79.95
2018-06-04T09:08:41.999Z,79.47
2018-06-04T09:09:41.991Z,77.92
2018-06-04T09:10:42.355Z,77.83
2018-06-04T09:11:42.481Z,77.83
2018-06-04T09:12:41.979Z,77.73
2018-06-04T09:13:42.326Z,77.28
2018-06-04T09:14:42.321Z,77.28
2018-06-04T09:15:42.540Z,76.42
2018-06-04T09:16:42.027Z,76.80
2018-06-04T09:17:41.801Z,75.74
2018-06-04T09:18:42.109Z,75.84
2018-06-04T09:19:41.889Z,74.87
2018-06-04T09:20:41.787Z,74.96
2018-06-04T09:21:41.873Z,74.87
2018-06-04T09:22:41.916Z,75.16
2018-06-04T09:23:41.784Z,74.68
2018-06-04T09:24:41.493Z,74.96
2018-06-04T09:25:45.936Z,74.32
2018-06-04T09:26:42.801Z,73.46
2018-06-04T09:27:43.710Z,73.55
2018-06-04T09:28:41.777Z,73.36
2018-06-04T09:29:42.062Z,73.30
2018-06-04T09:30:42.527Z,72.52
2018-06-04T09:31:44.379Z,72.78
2018-06-04T09:32:42.446Z,72.68
2018-06-04T09:33:41.852Z,71.94
2018-06-04T09:34:42.063Z,71.94
2018-06-04T09:35:42.073Z,71.84
2018-06-04T09:36:41.868Z,71.36
2018-06-04T09:37:42.061Z,70.92
2018-06-04T09:38:42.341Z,71.30
2018-06-04T09:39:41.937Z,71.11
2018-06-04T09:40:42.047Z,72.17
2018-06-04T09:41:41.984Z,72.95
2018-06-04T09:42:41.992Z,71.88
2018-06-04T09:43:42.361Z,72.14
2018-06-04T09:44:42.125Z,72.04
2018-06-04T09:45:42.908Z,71.88
2018-06-04T09:46:42.002Z,71.50
2018-06-04T09:47:42.055Z,71.59
2018-06-04T09:48:42.521Z,72.04
2018-06-04T09:49:41.878Z,71.69
2018-06-04T09:50:42.095Z,71.78
2018-06-04T09:51:42.832Z,71.59
2018-06-04T09:52:42.278Z,70.98
2018-06-04T09:53:41.994Z,70.78
2018-06-04T09:54:42.056Z,70.30
2018-06-04T09:55:42.343Z,71.01
2018-06-04T09:56:42.021Z,70.34
2018-06-04T09:57:42.555Z,69.59
2018-06-04T09:58:42.048Z,69.46
2018-06-04T09:59:42.079Z,69.89
2018-06-04T10:00:43.617Z,70.08
2018-06-04T10:01:44.063Z,70.27
2018-06-04T10:02:42.501Z,70.18
2018-06-04T10:03:41.929Z,69.50
2018-06-04T10:04:42.403Z,69.69
2018-06-04T10:05:43.226Z,70.47
2018-06-04T10:06:44.088Z,70.01
2018-06-04T10:07:42.517Z,70.47
2018-06-04T10:08:42.424Z,71.14
2018-06-04T10:09:43.369Z,72.02
2018-06-04T10:10:42.001Z,71.44
2018-06-04T10:11:42.735Z,72.50
2018-06-04T10:14:50.504Z,72.11
2018-06-04T10:15:44.311Z,71.88
2018-06-04T10:16:43.983Z,72.17
2018-06-04T10:17:44.517Z,71.92
2018-06-04T10:18:42.559Z,71.82
2018-06-04T10:19:44.054Z,71.82
2018-06-04T10:20:42.054Z,71.78
2018-06-04T10:21:42.587Z,72.08
2018-06-04T10:22:43.464Z,71.62
2018-06-04T10:23:42.499Z,71.44
2018-06-04T10:24:45.273Z,71.82
2018-06-04T10:25:44.021Z,71.34
2018-06-04T10:26:42.623Z,71.53
2018-06-04T10:27:42.571Z,71.47
2018-06-04T10:28:42.592Z,70.70
2018-06-04T10:29:42.019Z,71.62
2018-06-04T10:30:49.574Z,71.92
2018-06-04T10:31:42.568Z,71.92
2018-06-04T10:32:50.800Z,71.88
2018-06-04T10:34:05.551Z,72.17
2018-06-04T10:34:43.102Z,71.92
2018-06-04T10:35:42.350Z,72.02
2018-06-04T10:36:50.723Z,72.02
2018-06-04T10:37:49.057Z,72.11
2018-06-04T10:38:43.336Z,71.53
2018-06-04T10:39:44.272Z,70.95
2018-06-04T10:41:43.760Z,70.98
2018-06-04T10:42:43.286Z,70.70
2018-06-04T10:43:42.796Z,70.98
2018-06-04T10:44:42.530Z,70.50
2018-06-04T10:45:44.581Z,70.11
2018-06-04T10:46:42.582Z,70.50
2018-06-04T10:47:43.612Z,70.98
2018-06-04T10:48:42.069Z,70.11
2018-06-04T10:49:42.952Z,69.67
2018-06-04T10:50:44.632Z,69.27
2018-06-04T10:51:42.460Z,68.70
2018-06-04T10:52:42.535Z,68.60
2018-06-04T10:53:48.010Z,68.73
2018-06-04T10:54:49.030Z,68.73
2018-06-04T10:55:42.587Z,68.63
2018-06-04T10:56:42.440Z,68.05
2018-06-04T10:57:44.287Z,68.24
2018-06-04T10:58:42.607Z,68.63
2018-06-04T10:59:42.535Z,68.05
2018-06-04T11:00:42.379Z,67.95
2018-06-04T11:01:42.637Z,68.05
2018-06-04T11:02:45.072Z,68.15
2018-06-04T11:03:42.898Z,68.24
2018-06-04T11:04:42.884Z,68.24
2018-06-04T11:05:42.454Z,68.05
2018-06-04T11:06:42.460Z,67.57
2018-06-04T11:07:42.039Z,67.37
2018-06-04T11:08:49.113Z,67.85
2018-06-04T11:09:49.175Z,67.66
2018-06-04T11:10:41.966Z,68.44
2018-06-04T11:11:44.932Z,67.69
2018-06-04T11:12:44.296Z,67.69
2018-06-04T11:13:44.824Z,67.21
2018-06-04T11:14:44.858Z,66.82
2018-06-04T11:15:42.543Z,67.40
2018-06-04T11:16:42.238Z,67.76
2018-06-04T11:17:42.050Z,67.31
2018-06-04T11:18:49.455Z,66.44
2018-06-04T11:19:43.690Z,65.08
2018-06-04T11:20:44.391Z,65.66
2018-06-04T11:21:42.890Z,66.05
2018-06-04T11:23:03.377Z,65.37
2018-06-04T11:23:42.391Z,65.01
2018-06-04T11:24:42.634Z,65.01
2018-06-04T11:25:59.271Z,64.23
2018-06-04T11:27:05.984Z,64.69
2018-06-04T11:27:44.292Z,65.11
2018-06-04T11:28:57.627Z,63.65
2018-06-04T11:29:42.696Z,63.10
2018-06-04T11:30:43.575Z,63.10
2018-06-04T11:31:49.150Z,62.74
2018-06-04T11:32:46.545Z,62.71
2018-06-04T11:34:18.089Z,62.91
2018-06-04T11:34:41.042Z,63.10
2018-06-04T11:35:43.531Z,63.98
2018-06-04T11:37:42.384Z,65.11
2018-06-04T11:38:42.558Z,63.95
2018-06-04T11:39:42.673Z,64.43
2018-06-04T11:40:42.980Z,65.01
2018-06-04T11:41:42.560Z,64.43
2018-06-04T11:42:43.013Z,64.98
2018-06-04T11:43:42.109Z,65.30
2018-06-04T11:44:42.512Z,64.72
2018-06-04T11:45:42.327Z,63.39
2018-06-04T11:46:43.559Z,62.16
2018-06-04T11:47:42.064Z,60.83
2018-06-04T11:48:42.381Z,60.28
2018-06-04T11:49:42.568Z,61.02
2018-06-04T11:50:42.619Z,61.38
2018-06-04T11:51:42.544Z,61.48
2018-06-04T11:52:43.078Z,61.94
2018-06-04T11:53:42.544Z,61.97
2018-06-04T11:54:44.628Z,62.71
2018-06-04T11:55:44.611Z,63.88
2018-06-04T11:56:42.941Z,63.32
2018-06-04T11:57:42.895Z,62.94
2018-06-04T11:58:42.942Z,63.78
2018-06-04T11:59:42.925Z,63.32
2018-06-04T12:00:43.157Z,62.48
2018-06-04T12:01:45.038Z,62.58
2018-06-04T12:02:42.949Z,62.65
2018-06-04T12:03:42.587Z,63.29
2018-06-04T12:04:42.584Z,63.20
2018-06-04T12:05:42.921Z,63.98
2018-06-04T12:06:42.517Z,63.95
2018-06-04T12:07:42.649Z,64.04
2018-06-04T12:08:43.116Z,62.91
2018-06-04T12:09:44.738Z,62.32
2018-06-04T12:10:43.122Z,62.26
2018-06-04T12:11:43.187Z,61.19
2018-06-04T12:12:42.289Z,61.94
2018-06-04T12:13:43.574Z,62.42
2018-06-04T12:14:42.660Z,62.35
2018-06-04T12:15:45.307Z,62.16
2018-06-04T12:16:43.141Z,61.77
2018-06-04T12:17:43.126Z,61.25
2018-06-04T12:18:43.179Z,61.45
2018-06-04T12:19:42.915Z,61.52
2018-06-04T12:20:43.119Z,62.32
2018-06-04T12:21:43.171Z,62.52
2018-06-04T12:22:43.085Z,61.55
2018-06-04T12:23:45.181Z,60.25
2018-06-04T12:24:43.172Z,58.92
2018-06-04T12:25:43.092Z,59.44
2018-06-04T12:26:42.929Z,58.72
2018-06-04T12:27:42.884Z,58.53
2018-06-04T12:28:43.789Z,57.95
2018-06-04T12:29:43.078Z,57.56
2018-06-04T12:30:45.543Z,57.65
2018-06-04T12:31:43.445Z,57.29
2018-06-04T12:32:43.083Z,55.93
2018-06-04T12:34:43.406Z,57.20
2018-06-04T12:35:42.690Z,56.54
2018-06-04T12:36:43.137Z,55.99
2018-06-04T12:37:51.917Z,55.43
2018-06-04T12:38:45.189Z,55.60
2018-06-04T12:39:42.994Z,54.62
2018-06-04T12:40:43.087Z,55.57
2018-06-04T12:41:49.690Z,55.60
2018-06-04T12:42:49.665Z,55.60
2018-06-04T12:43:43.174Z,54.36
2018-06-04T12:44:44.964Z,53.60
2018-06-04T12:45:43.193Z,52.95
2018-06-04T12:46:42.904Z,51.90
2018-06-04T12:47:42.903Z,52.78
2018-06-04T12:48:43.142Z,51.21
2018-06-04T12:49:43.011Z,51.17
2018-06-04T12:50:43.180Z,50.99
2018-06-04T12:51:42.899Z,50.14
2018-06-04T12:52:45.595Z,49.99
2018-06-04T12:53:42.903Z,50.51
2018-06-04T12:54:42.916Z,50.38
2018-06-04T12:55:43.219Z,51.46
2018-06-04T12:56:43.443Z,51.53
2018-06-04T12:57:43.393Z,50.31
2018-06-04T12:58:45.458Z,48.61
2018-06-04T12:59:45.137Z,49.46
2018-06-04T13:00:43.060Z,48.83
2018-06-04T13:01:45.601Z,48.51
2018-06-04T13:02:44.215Z,48.00
2018-06-04T13:03:43.994Z,47.75
2018-06-04T13:04:43.502Z,48.29
2018-06-04T13:05:43.454Z,49.95
2018-06-04T13:06:43.989Z,49.93
2018-06-04T13:07:43.357Z,50.87
2018-06-04T13:08:47.946Z,52.94